sensor_id;sensor_type;location;lat;lon;timestamp;temperature;humidity
76567;DHT22;65428;53.194;6.132;2024-01-25T00:02:17;7.70;99.90
76567;DHT22;65428;53.194;6.132;2024-01-25T00:04:43;7.70;99.90
76567;DHT22;65428;53.194;6.132;2024-01-25T00:07:08;7.60;99.90
76567;DHT22;65428;53.194;6.132;2024-01-25T00:09:38;7.70;99.90
76567;DHT22;65428;53.194;6.132;2024-01-25T00:12:09;7.80;99.90
76567;DHT22;65428;53.194;6.132;2024-01-25T00:14:43;7.40;99.90
76567;DHT22;65428;53.194;6.132;2024-01-25T00:17:09;7.40;99.90
76567;DHT22;65428;53.194;6.132;2024-01-25T00:19:37;7.40;99.90
76567;DHT22;65428;53.194;6.132;2024-01-25T00:22:09;7.20;99.90
76567;DHT22;65428;53.194;6.132;2024-01-25T00:24:38;7.40;99.90
76567;DHT22;65428;53.194;6.132;2024-01-25T00:27:03;7.20;99.90
76567;DHT22;65428;53.194;6.132;2024-01-25T00:29:30;7.20;99.90
76567;DHT22;65428;53.194;6.132;2024-01-25T00:31:56;7.00;99.90
76567;DHT22;65428;53.194;6.132;2024-01-25T00:34:23;7.30;99.90
76567;DHT22;65428;53.194;6.132;2024-01-25T00:36:50;7.10;99.90
76567;DHT22;65428;53.194;6.132;2024-01-25T00:39:16;7.10;99.90
76567;DHT22;65428;53.194;6.132;2024-01-25T00:41:46;7.00;99.90
76567;DHT22;65428;53.194;6.132;2024-01-25T00:44:16;7.10;99.90
76567;DHT22;65428;53.194;6.132;2024-01-25T00:46:42;7.00;99.90
76567;DHT22;65428;53.194;6.132;2024-01-25T00:49:09;7.00;99.90
76567;DHT22;65428;53.194;6.132;2024-01-25T00:51:36;6.90;99.90
76567;DHT22;65428;53.194;6.132;2024-01-25T00:54:02;6.90;99.90
76567;DHT22;65428;53.194;6.132;2024-01-25T00:56:28;6.90;99.90
76567;DHT22;65428;53.194;6.132;2024-01-25T00:58:54;6.80;99.90
76567;DHT22;65428;53.194;6.132;2024-01-25T01:01:21;6.80;99.90
76567;DHT22;65428;53.194;6.132;2024-01-25T01:03:48;6.80;99.90
76567;DHT22;65428;53.194;6.132;2024-01-25T01:06:19;6.80;99.90
76567;DHT22;65428;53.194;6.132;2024-01-25T01:08:46;6.80;99.90
76567;DHT22;65428;53.194;6.132;2024-01-25T01:11:12;6.80;99.90
76567;DHT22;65428;53.194;6.132;2024-01-25T01:13:37;6.80;99.90
76567;DHT22;65428;53.194;6.132;2024-01-25T01:16:03;6.80;99.90
76567;DHT22;65428;53.194;6.132;2024-01-25T01:18:29;6.70;99.90
76567;DHT22;65428;53.194;6.132;2024-01-25T01:20:58;6.60;99.90
76567;DHT22;65428;53.194;6.132;2024-01-25T01:23:23;6.80;99.90
76567;DHT22;65428;53.194;6.132;2024-01-25T01:25:49;6.60;99.90
76567;DHT22;65428;53.194;6.132;2024-01-25T01:28:15;6.70;99.90
76567;DHT22;65428;53.194;6.132;2024-01-25T01:30:41;6.40;99.90
76567;DHT22;65428;53.194;6.132;2024-01-25T01:33:10;7.00;99.90
76567;DHT22;65428;53.194;6.132;2024-01-25T01:35:36;6.60;99.90
76567;DHT22;65428;53.194;6.132;2024-01-25T01:38:02;7.30;99.90
76567;DHT22;65428;53.194;6.132;2024-01-25T01:40:28;6.50;99.90
76567;DHT22;65428;53.194;6.132;2024-01-25T01:43:00;6.60;99.90
76567;DHT22;65428;53.194;6.132;2024-01-25T01:45:29;6.70;99.90
76567;DHT22;65428;53.194;6.132;2024-01-25T01:47:56;6.40;99.90
76567;DHT22;65428;53.194;6.132;2024-01-25T01:50:22;6.80;99.90
76567;DHT22;65428;53.194;6.132;2024-01-25T01:52:49;6.70;99.90
76567;DHT22;65428;53.194;6.132;2024-01-25T01:55:16;6.80;99.90
76567;DHT22;65428;53.194;6.132;2024-01-25T01:57:45;6.30;99.90
76567;DHT22;65428;53.194;6.132;2024-01-25T02:00:15;6.60;99.90
76567;DHT22;65428;53.194;6.132;2024-01-25T02:02:42;6.60;99.90
76567;DHT22;65428;53.194;6.132;2024-01-25T02:05:08;6.60;99.90
76567;DHT22;65428;53.194;6.132;2024-01-25T02:07:34;6.60;99.90
76567;DHT22;65428;53.194;6.132;2024-01-25T02:10:00;6.60;99.90
76567;DHT22;65428;53.194;6.132;2024-01-25T02:12:26;6.70;99.90
76567;DHT22;65428;53.194;6.132;2024-01-25T02:14:51;6.90;99.90
76567;DHT22;65428;53.194;6.132;2024-01-25T02:17:17;6.40;99.90
76567;DHT22;65428;53.194;6.132;2024-01-25T02:19:43;7.00;99.90
76567;DHT22;65428;53.194;6.132;2024-01-25T02:22:16;6.40;99.90
76567;DHT22;65428;53.194;6.132;2024-01-25T02:24:42;6.90;99.90
76567;DHT22;65428;53.194;6.132;2024-01-25T02:27:07;6.70;99.90
76567;DHT22;65428;53.194;6.132;2024-01-25T02:29:33;6.50;99.90
76567;DHT22;65428;53.194;6.132;2024-01-25T02:31:59;7.00;99.90
76567;DHT22;65428;53.194;6.132;2024-01-25T02:34:24;6.20;99.90
76567;DHT22;65428;53.194;6.132;2024-01-25T02:36:50;6.50;99.90
76567;DHT22;65428;53.194;6.132;2024-01-25T02:39:16;6.70;99.90
76567;DHT22;65428;53.194;6.132;2024-01-25T02:41:42;6.50;99.90
76567;DHT22;65428;53.194;6.132;2024-01-25T02:44:08;6.50;99.90
76567;DHT22;65428;53.194;6.132;2024-01-25T02:46:34;6.50;99.90
76567;DHT22;65428;53.194;6.132;2024-01-25T02:48:59;6.50;99.90
76567;DHT22;65428;53.194;6.132;2024-01-25T02:51:25;6.40;99.90
76567;DHT22;65428;53.194;6.132;2024-01-25T02:53:51;6.30;99.90
76567;DHT22;65428;53.194;6.132;2024-01-25T02:56:16;6.70;99.90
76567;DHT22;65428;53.194;6.132;2024-01-25T02:58:42;6.70;99.90
76567;DHT22;65428;53.194;6.132;2024-01-25T03:01:08;6.20;99.90
76567;DHT22;65428;53.194;6.132;2024-01-25T03:03:33;6.20;99.90
76567;DHT22;65428;53.194;6.132;2024-01-25T03:05:59;6.30;99.90
76567;DHT22;65428;53.194;6.132;2024-01-25T03:08:25;6.30;99.90
76567;DHT22;65428;53.194;6.132;2024-01-25T03:10:51;6.40;99.90
76567;DHT22;65428;53.194;6.132;2024-01-25T03:13:17;6.70;99.90
76567;DHT22;65428;53.194;6.132;2024-01-25T03:15:43;6.30;99.90
76567;DHT22;65428;53.194;6.132;2024-01-25T03:18:09;6.30;99.90
76567;DHT22;65428;53.194;6.132;2024-01-25T03:20:35;5.90;99.90
76567;DHT22;65428;53.194;6.132;2024-01-25T03:23:01;6.10;99.90
76567;DHT22;65428;53.194;6.132;2024-01-25T03:25:26;6.10;99.90
76567;DHT22;65428;53.194;6.132;2024-01-25T03:27:52;6.20;99.90
76567;DHT22;65428;53.194;6.132;2024-01-25T03:30:18;6.00;99.90
76567;DHT22;65428;53.194;6.132;2024-01-25T03:32:45;6.00;99.90
76567;DHT22;65428;53.194;6.132;2024-01-25T03:35:11;6.30;99.90
76567;DHT22;65428;53.194;6.132;2024-01-25T03:37:37;6.10;99.90
76567;DHT22;65428;53.194;6.132;2024-01-25T03:40:03;6.00;99.90
76567;DHT22;65428;53.194;6.132;2024-01-25T03:42:29;5.90;99.90
76567;DHT22;65428;53.194;6.132;2024-01-25T03:44:54;5.90;99.90
76567;DHT22;65428;53.194;6.132;2024-01-25T03:47:20;6.20;99.90
76567;DHT22;65428;53.194;6.132;2024-01-25T03:49:46;5.80;99.90
76567;DHT22;65428;53.194;6.132;2024-01-25T03:52:11;5.80;99.90
76567;DHT22;65428;53.194;6.132;2024-01-25T03:54:37;6.10;99.90
76567;DHT22;65428;53.194;6.132;2024-01-25T03:57:03;6.20;99.90
76567;DHT22;65428;53.194;6.132;2024-01-25T03:59:29;5.80;99.90
76567;DHT22;65428;53.194;6.132;2024-01-25T04:01:54;5.90;99.90
76567;DHT22;65428;53.194;6.132;2024-01-25T04:04:20;5.70;99.90
76567;DHT22;65428;53.194;6.132;2024-01-25T04:06:46;5.80;99.90
76567;DHT22;65428;53.194;6.132;2024-01-25T04:09:12;6.00;99.90
76567;DHT22;65428;53.194;6.132;2024-01-25T04:11:38;5.60;99.90
76567;DHT22;65428;53.194;6.132;2024-01-25T04:14:04;5.60;99.90
76567;DHT22;65428;53.194;6.132;2024-01-25T04:16:31;5.60;99.90
76567;DHT22;65428;53.194;6.132;2024-01-25T04:18:57;5.80;99.90
76567;DHT22;65428;53.194;6.132;2024-01-25T04:21:22;5.80;99.90
76567;DHT22;65428;53.194;6.132;2024-01-25T04:23:48;5.50;99.90
76567;DHT22;65428;53.194;6.132;2024-01-25T04:26:15;5.50;99.90
76567;DHT22;65428;53.194;6.132;2024-01-25T04:28:42;5.40;99.90
76567;DHT22;65428;53.194;6.132;2024-01-25T04:31:08;5.30;99.90
76567;DHT22;65428;53.194;6.132;2024-01-25T04:33:33;5.30;99.90
76567;DHT22;65428;53.194;6.132;2024-01-25T04:35:59;5.20;99.90
76567;DHT22;65428;53.194;6.132;2024-01-25T04:38:25;5.20;99.90
76567;DHT22;65428;53.194;6.132;2024-01-25T04:40:50;5.30;99.90
76567;DHT22;65428;53.194;6.132;2024-01-25T04:43:16;5.10;99.90
76567;DHT22;65428;53.194;6.132;2024-01-25T04:45:42;5.10;99.90
76567;DHT22;65428;53.194;6.132;2024-01-25T04:48:08;5.30;99.90
76567;DHT22;65428;53.194;6.132;2024-01-25T04:50:34;5.10;99.90
76567;DHT22;65428;53.194;6.132;2024-01-25T04:53:01;5.10;99.90
76567;DHT22;65428;53.194;6.132;2024-01-25T04:55:28;5.30;99.90
76567;DHT22;65428;53.194;6.132;2024-01-25T04:57:53;5.00;99.90
76567;DHT22;65428;53.194;6.132;2024-01-25T05:00:21;5.10;99.90
76567;DHT22;65428;53.194;6.132;2024-01-25T05:02:48;5.10;99.90
76567;DHT22;65428;53.194;6.132;2024-01-25T05:05:14;5.20;99.90
76567;DHT22;65428;53.194;6.132;2024-01-25T05:07:40;5.40;99.90
76567;DHT22;65428;53.194;6.132;2024-01-25T05:10:06;5.30;99.90
76567;DHT22;65428;53.194;6.132;2024-01-25T05:12:33;5.00;99.90
76567;DHT22;65428;53.194;6.132;2024-01-25T05:14:59;5.30;99.90
76567;DHT22;65428;53.194;6.132;2024-01-25T05:17:24;5.00;99.90
76567;DHT22;65428;53.194;6.132;2024-01-25T05:19:50;5.00;99.90
76567;DHT22;65428;53.194;6.132;2024-01-25T05:22:16;5.20;99.90
76567;DHT22;65428;53.194;6.132;2024-01-25T05:24:42;5.20;99.90
76567;DHT22;65428;53.194;6.132;2024-01-25T05:27:08;5.20;99.90
76567;DHT22;65428;53.194;6.132;2024-01-25T05:29:33;4.90;99.90
76567;DHT22;65428;53.194;6.132;2024-01-25T05:31:59;4.90;99.90
76567;DHT22;65428;53.194;6.132;2024-01-25T05:34:25;4.90;99.90
76567;DHT22;65428;53.194;6.132;2024-01-25T05:36:51;5.10;99.90
76567;DHT22;65428;53.194;6.132;2024-01-25T05:39:16;4.90;99.90
76567;DHT22;65428;53.194;6.132;2024-01-25T05:41:42;5.00;99.90
76567;DHT22;65428;53.194;6.132;2024-01-25T05:44:12;4.70;99.90
76567;DHT22;65428;53.194;6.132;2024-01-25T05:46:38;4.60;99.90
76567;DHT22;65428;53.194;6.132;2024-01-25T05:49:03;5.00;99.90
76567;DHT22;65428;53.194;6.132;2024-01-25T05:51:29;5.10;99.90
76567;DHT22;65428;53.194;6.132;2024-01-25T05:53:54;4.50;99.90
76567;DHT22;65428;53.194;6.132;2024-01-25T05:56:20;4.70;99.90
76567;DHT22;65428;53.194;6.132;2024-01-25T05:58:46;4.40;99.90
76567;DHT22;65428;53.194;6.132;2024-01-25T06:01:11;4.50;99.90
76567;DHT22;65428;53.194;6.132;2024-01-25T06:03:37;4.30;99.90
76567;DHT22;65428;53.194;6.132;2024-01-25T06:06:03;4.30;99.90
76567;DHT22;65428;53.194;6.132;2024-01-25T06:08:28;4.20;99.90
76567;DHT22;65428;53.194;6.132;2024-01-25T06:10:54;4.10;99.90
76567;DHT22;65428;53.194;6.132;2024-01-25T06:13:20;4.20;99.90
76567;DHT22;65428;53.194;6.132;2024-01-25T06:15:45;4.40;99.90
76567;DHT22;65428;53.194;6.132;2024-01-25T06:18:11;4.00;99.90
76567;DHT22;65428;53.194;6.132;2024-01-25T06:20:37;4.00;99.90
76567;DHT22;65428;53.194;6.132;2024-01-25T06:23:02;3.90;99.90
76567;DHT22;65428;53.194;6.132;2024-01-25T06:25:28;3.90;99.90
76567;DHT22;65428;53.194;6.132;2024-01-25T06:27:56;3.90;99.90
76567;DHT22;65428;53.194;6.132;2024-01-25T06:30:23;3.80;99.90
76567;DHT22;65428;53.194;6.132;2024-01-25T06:32:48;4.10;99.90
76567;DHT22;65428;53.194;6.132;2024-01-25T06:35:14;3.80;99.90
76567;DHT22;65428;53.194;6.132;2024-01-25T06:37:40;4.10;99.90
76567;DHT22;65428;53.194;6.132;2024-01-25T06:40:06;4.00;99.90
76567;DHT22;65428;53.194;6.132;2024-01-25T06:42:32;3.80;99.90
76567;DHT22;65428;53.194;6.132;2024-01-25T06:44:58;3.70;99.90
76567;DHT22;65428;53.194;6.132;2024-01-25T06:47:23;4.00;99.90
76567;DHT22;65428;53.194;6.132;2024-01-25T06:49:49;3.70;99.90
76567;DHT22;65428;53.194;6.132;2024-01-25T06:52:17;3.60;99.90
76567;DHT22;65428;53.194;6.132;2024-01-25T06:54:43;3.60;99.90
76567;DHT22;65428;53.194;6.132;2024-01-25T06:57:08;3.60;99.90
76567;DHT22;65428;53.194;6.132;2024-01-25T06:59:34;3.80;99.90
76567;DHT22;65428;53.194;6.132;2024-01-25T07:02:00;3.50;99.90
76567;DHT22;65428;53.194;6.132;2024-01-25T07:04:28;3.40;99.90
76567;DHT22;65428;53.194;6.132;2024-01-25T07:06:54;3.40;99.90
76567;DHT22;65428;53.194;6.132;2024-01-25T07:09:20;3.30;99.90
76567;DHT22;65428;53.194;6.132;2024-01-25T07:11:46;3.30;99.90
76567;DHT22;65428;53.194;6.132;2024-01-25T07:14:11;3.20;99.90
76567;DHT22;65428;53.194;6.132;2024-01-25T07:16:37;3.20;99.90
76567;DHT22;65428;53.194;6.132;2024-01-25T07:19:03;3.20;99.90
76567;DHT22;65428;53.194;6.132;2024-01-25T07:21:29;3.10;99.90
76567;DHT22;65428;53.194;6.132;2024-01-25T07:24:00;3.10;99.90
76567;DHT22;65428;53.194;6.132;2024-01-25T07:26:26;3.10;99.90
76567;DHT22;65428;53.194;6.132;2024-01-25T07:28:52;3.10;99.90
76567;DHT22;65428;53.194;6.132;2024-01-25T07:31:26;3.00;99.90
76567;DHT22;65428;53.194;6.132;2024-01-25T07:33:53;3.00;99.90
76567;DHT22;65428;53.194;6.132;2024-01-25T07:36:19;3.20;99.90
76567;DHT22;65428;53.194;6.132;2024-01-25T07:38:45;3.00;99.90
76567;DHT22;65428;53.194;6.132;2024-01-25T07:41:13;3.00;99.90
76567;DHT22;65428;53.194;6.132;2024-01-25T07:43:39;3.00;99.90
76567;DHT22;65428;53.194;6.132;2024-01-25T07:46:04;3.10;99.90
76567;DHT22;65428;53.194;6.132;2024-01-25T07:48:30;3.20;99.90
76567;DHT22;65428;53.194;6.132;2024-01-25T07:50:56;3.10;99.90
76567;DHT22;65428;53.194;6.132;2024-01-25T07:53:22;3.20;99.90
76567;DHT22;65428;53.194;6.132;2024-01-25T07:55:48;3.40;99.90
76567;DHT22;65428;53.194;6.132;2024-01-25T07:58:15;3.20;99.90
76567;DHT22;65428;53.194;6.132;2024-01-25T08:00:40;3.20;99.90
76567;DHT22;65428;53.194;6.132;2024-01-25T08:03:07;3.60;99.90
76567;DHT22;65428;53.194;6.132;2024-01-25T08:05:32;3.20;99.90
76567;DHT22;65428;53.194;6.132;2024-01-25T08:07:58;3.30;99.90
76567;DHT22;65428;53.194;6.132;2024-01-25T08:10:23;3.30;99.90
76567;DHT22;65428;53.194;6.132;2024-01-25T08:12:49;3.40;99.90
76567;DHT22;65428;53.194;6.132;2024-01-25T08:15:15;3.50;99.90
76567;DHT22;65428;53.194;6.132;2024-01-25T08:17:41;3.50;99.90
76567;DHT22;65428;53.194;6.132;2024-01-25T08:20:07;3.50;99.90
76567;DHT22;65428;53.194;6.132;2024-01-25T08:22:34;3.50;99.90
76567;DHT22;65428;53.194;6.132;2024-01-25T08:24:59;3.60;99.90
76567;DHT22;65428;53.194;6.132;2024-01-25T08:27:25;3.60;99.90
76567;DHT22;65428;53.194;6.132;2024-01-25T08:29:51;3.60;99.90
76567;DHT22;65428;53.194;6.132;2024-01-25T08:32:16;3.70;99.90
76567;DHT22;65428;53.194;6.132;2024-01-25T08:34:42;3.70;99.90
76567;DHT22;65428;53.194;6.132;2024-01-25T08:37:07;3.70;99.90
76567;DHT22;65428;53.194;6.132;2024-01-25T08:39:33;3.70;99.90
76567;DHT22;65428;53.194;6.132;2024-01-25T08:41:59;3.80;99.90
76567;DHT22;65428;53.194;6.132;2024-01-25T08:44:29;3.90;99.90
76567;DHT22;65428;53.194;6.132;2024-01-25T08:46:54;3.90;99.90
76567;DHT22;65428;53.194;6.132;2024-01-25T08:49:20;4.00;99.90
76567;DHT22;65428;53.194;6.132;2024-01-25T08:51:45;4.00;99.90
76567;DHT22;65428;53.194;6.132;2024-01-25T08:54:11;4.10;99.90
76567;DHT22;65428;53.194;6.132;2024-01-25T08:56:36;4.40;99.90
76567;DHT22;65428;53.194;6.132;2024-01-25T08:59:02;4.20;99.90
76567;DHT22;65428;53.194;6.132;2024-01-25T09:01:28;4.30;99.90
76567;DHT22;65428;53.194;6.132;2024-01-25T09:03:53;4.40;99.90
76567;DHT22;65428;53.194;6.132;2024-01-25T09:06:19;4.60;99.90
76567;DHT22;65428;53.194;6.132;2024-01-25T09:08:45;4.60;99.90
76567;DHT22;65428;53.194;6.132;2024-01-25T09:11:10;4.70;99.90
76567;DHT22;65428;53.194;6.132;2024-01-25T09:13:36;4.70;99.90
76567;DHT22;65428;53.194;6.132;2024-01-25T09:16:02;4.80;99.90
76567;DHT22;65428;53.194;6.132;2024-01-25T09:18:27;4.90;99.90
76567;DHT22;65428;53.194;6.132;2024-01-25T09:20:53;4.90;99.90
76567;DHT22;65428;53.194;6.132;2024-01-25T09:23:30;5.00;99.90
76567;DHT22;65428;53.194;6.132;2024-01-25T09:25:56;5.30;99.90
76567;DHT22;65428;53.194;6.132;2024-01-25T09:28:22;5.40;99.90
76567;DHT22;65428;53.194;6.132;2024-01-25T09:30:47;5.20;99.90
76567;DHT22;65428;53.194;6.132;2024-01-25T09:33:14;5.20;99.90
76567;DHT22;65428;53.194;6.132;2024-01-25T09:35:40;5.30;99.90
76567;DHT22;65428;53.194;6.132;2024-01-25T09:38:06;5.30;99.90
76567;DHT22;65428;53.194;6.132;2024-01-25T09:40:31;5.30;99.90
76567;DHT22;65428;53.194;6.132;2024-01-25T09:42:58;5.50;99.90
76567;DHT22;65428;53.194;6.132;2024-01-25T09:45:24;5.40;99.90
76567;DHT22;65428;53.194;6.132;2024-01-25T09:47:50;5.40;99.90
76567;DHT22;65428;53.194;6.132;2024-01-25T09:50:16;5.50;99.90
76567;DHT22;65428;53.194;6.132;2024-01-25T09:52:53;5.50;99.90
76567;DHT22;65428;53.194;6.132;2024-01-25T09:55:23;5.60;99.90
76567;DHT22;65428;53.194;6.132;2024-01-25T09:57:53;5.60;99.90
76567;DHT22;65428;53.194;6.132;2024-01-25T10:00:20;5.40;99.90
76567;DHT22;65428;53.194;6.132;2024-01-25T10:02:50;5.70;99.90
76567;DHT22;65428;53.194;6.132;2024-01-25T10:05:17;5.70;99.90
76567;DHT22;65428;53.194;6.132;2024-01-25T10:07:45;5.80;99.90
76567;DHT22;65428;53.194;6.132;2024-01-25T10:10:11;5.90;99.90
76567;DHT22;65428;53.194;6.132;2024-01-25T10:12:42;5.90;99.90
76567;DHT22;65428;53.194;6.132;2024-01-25T10:15:09;6.00;99.90
76567;DHT22;65428;53.194;6.132;2024-01-25T10:17:34;6.10;99.90
76567;DHT22;65428;53.194;6.132;2024-01-25T10:20:00;6.40;99.90
76567;DHT22;65428;53.194;6.132;2024-01-25T10:22:26;6.60;99.90
76567;DHT22;65428;53.194;6.132;2024-01-25T10:24:52;6.80;99.90
76567;DHT22;65428;53.194;6.132;2024-01-25T10:27:21;7.20;99.90
76567;DHT22;65428;53.194;6.132;2024-01-25T10:29:49;7.20;99.90
76567;DHT22;65428;53.194;6.132;2024-01-25T10:32:15;7.40;99.90
76567;DHT22;65428;53.194;6.132;2024-01-25T10:34:42;7.70;99.90
76567;DHT22;65428;53.194;6.132;2024-01-25T10:37:08;8.00;99.90
76567;DHT22;65428;53.194;6.132;2024-01-25T10:39:34;8.30;99.90
76567;DHT22;65428;53.194;6.132;2024-01-25T10:42:00;8.70;99.90
76567;DHT22;65428;53.194;6.132;2024-01-25T10:44:27;8.70;99.90
76567;DHT22;65428;53.194;6.132;2024-01-25T10:46:53;8.60;99.90
76567;DHT22;65428;53.194;6.132;2024-01-25T10:49:20;8.40;99.90
76567;DHT22;65428;53.194;6.132;2024-01-25T10:51:47;8.40;99.90
76567;DHT22;65428;53.194;6.132;2024-01-25T10:54:14;8.70;99.90
76567;DHT22;65428;53.194;6.132;2024-01-25T10:56:46;8.30;99.90
76567;DHT22;65428;53.194;6.132;2024-01-25T10:59:11;8.40;99.90
76567;DHT22;65428;53.194;6.132;2024-01-25T11:01:37;8.70;99.90
76567;DHT22;65428;53.194;6.132;2024-01-25T11:04:12;8.90;99.90
76567;DHT22;65428;53.194;6.132;2024-01-25T11:06:38;8.70;99.90
76567;DHT22;65428;53.194;6.132;2024-01-25T11:09:07;8.80;99.90
76567;DHT22;65428;53.194;6.132;2024-01-25T11:11:35;8.70;99.90
76567;DHT22;65428;53.194;6.132;2024-01-25T11:14:02;8.80;99.90
76567;DHT22;65428;53.194;6.132;2024-01-25T11:16:29;8.90;99.90
76567;DHT22;65428;53.194;6.132;2024-01-25T11:18:58;8.90;99.90
76567;DHT22;65428;53.194;6.132;2024-01-25T11:21:44;9.30;99.90
76567;DHT22;65428;53.194;6.132;2024-01-25T11:26:45;9.40;99.90
76567;DHT22;65428;53.194;6.132;2024-01-25T11:29:19;9.60;99.90
76567;DHT22;65428;53.194;6.132;2024-01-25T11:31:47;9.60;99.90
76567;DHT22;65428;53.194;6.132;2024-01-25T11:34:13;9.70;99.90
76567;DHT22;65428;53.194;6.132;2024-01-25T11:36:41;9.80;99.90
76567;DHT22;65428;53.194;6.132;2024-01-25T11:39:09;9.80;99.90
76567;DHT22;65428;53.194;6.132;2024-01-25T11:41:35;10.40;99.90
76567;DHT22;65428;53.194;6.132;2024-01-25T11:44:04;9.80;99.90
76567;DHT22;65428;53.194;6.132;2024-01-25T11:46:33;9.60;99.90
76567;DHT22;65428;53.194;6.132;2024-01-25T11:48:58;9.70;99.90
76567;DHT22;65428;53.194;6.132;2024-01-25T11:51:24;9.40;99.90
76567;DHT22;65428;53.194;6.132;2024-01-25T11:53:50;9.30;99.90
76567;DHT22;65428;53.194;6.132;2024-01-25T11:56:26;9.20;99.90
76567;DHT22;65428;53.194;6.132;2024-01-25T11:58:53;9.10;99.90
76567;DHT22;65428;53.194;6.132;2024-01-25T12:01:21;9.00;99.90
76567;DHT22;65428;53.194;6.132;2024-01-25T12:03:47;8.90;99.90
76567;DHT22;65428;53.194;6.132;2024-01-25T12:06:13;9.00;99.90
76567;DHT22;65428;53.194;6.132;2024-01-25T12:08:38;9.00;99.90
76567;DHT22;65428;53.194;6.132;2024-01-25T12:11:05;9.10;99.90
76567;DHT22;65428;53.194;6.132;2024-01-25T12:13:49;9.00;99.90
76567;DHT22;65428;53.194;6.132;2024-01-25T12:16:15;9.30;99.90
76567;DHT22;65428;53.194;6.132;2024-01-25T12:18:43;9.40;99.90
76567;DHT22;65428;53.194;6.132;2024-01-25T12:21:08;9.30;99.90
76567;DHT22;65428;53.194;6.132;2024-01-25T12:23:36;9.80;99.90
76567;DHT22;65428;53.194;6.132;2024-01-25T12:26:04;9.70;99.90
76567;DHT22;65428;53.194;6.132;2024-01-25T12:28:30;9.70;99.90
76567;DHT22;65428;53.194;6.132;2024-01-25T12:30:58;9.70;99.90
76567;DHT22;65428;53.194;6.132;2024-01-25T12:33:24;9.80;99.90
76567;DHT22;65428;53.194;6.132;2024-01-25T12:35:50;9.40;99.90
76567;DHT22;65428;53.194;6.132;2024-01-25T12:38:15;9.40;99.90
76567;DHT22;65428;53.194;6.132;2024-01-25T12:40:43;9.30;99.90
76567;DHT22;65428;53.194;6.132;2024-01-25T12:43:09;9.60;99.90
76567;DHT22;65428;53.194;6.132;2024-01-25T12:45:34;9.20;99.90
76567;DHT22;65428;53.194;6.132;2024-01-25T12:48:00;9.30;99.90
76567;DHT22;65428;53.194;6.132;2024-01-25T12:50:28;9.10;99.90
76567;DHT22;65428;53.194;6.132;2024-01-25T12:52:53;9.10;99.90
76567;DHT22;65428;53.194;6.132;2024-01-25T12:55:19;9.00;99.90
76567;DHT22;65428;53.194;6.132;2024-01-25T12:57:45;9.20;99.90
76567;DHT22;65428;53.194;6.132;2024-01-25T13:00:11;9.20;99.90
76567;DHT22;65428;53.194;6.132;2024-01-25T13:02:37;9.20;99.90
76567;DHT22;65428;53.194;6.132;2024-01-25T13:05:02;9.20;99.90
76567;DHT22;65428;53.194;6.132;2024-01-25T13:07:29;9.30;99.90
76567;DHT22;65428;53.194;6.132;2024-01-25T13:09:54;9.30;99.90
76567;DHT22;65428;53.194;6.132;2024-01-25T13:12:20;9.60;99.90
76567;DHT22;65428;53.194;6.132;2024-01-25T13:14:46;9.60;99.90
76567;DHT22;65428;53.194;6.132;2024-01-25T13:17:11;9.50;99.90
76567;DHT22;65428;53.194;6.132;2024-01-25T13:19:37;9.50;99.90
76567;DHT22;65428;53.194;6.132;2024-01-25T13:22:03;9.90;99.90
76567;DHT22;65428;53.194;6.132;2024-01-25T13:24:29;9.50;99.90
76567;DHT22;65428;53.194;6.132;2024-01-25T13:26:55;9.50;99.90
76567;DHT22;65428;53.194;6.132;2024-01-25T13:29:20;9.40;99.90
76567;DHT22;65428;53.194;6.132;2024-01-25T13:31:46;9.70;99.90
76567;DHT22;65428;53.194;6.132;2024-01-25T13:34:13;9.60;99.90
76567;DHT22;65428;53.194;6.132;2024-01-25T13:36:38;9.60;99.90
76567;DHT22;65428;53.194;6.132;2024-01-25T13:39:04;9.40;99.90
76567;DHT22;65428;53.194;6.132;2024-01-25T13:41:30;9.50;99.90
76567;DHT22;65428;53.194;6.132;2024-01-25T13:43:55;9.40;99.90
76567;DHT22;65428;53.194;6.132;2024-01-25T13:46:21;9.40;99.90
76567;DHT22;65428;53.194;6.132;2024-01-25T13:48:47;9.40;99.90
76567;DHT22;65428;53.194;6.132;2024-01-25T13:51:12;9.50;99.90
76567;DHT22;65428;53.194;6.132;2024-01-25T13:53:38;9.60;99.90
76567;DHT22;65428;53.194;6.132;2024-01-25T13:56:04;10.00;99.90
76567;DHT22;65428;53.194;6.132;2024-01-25T13:58:30;9.80;99.90
76567;DHT22;65428;53.194;6.132;2024-01-25T14:00:55;10.00;99.90
76567;DHT22;65428;53.194;6.132;2024-01-25T14:03:21;9.80;99.90
76567;DHT22;65428;53.194;6.132;2024-01-25T14:05:47;9.70;99.90
76567;DHT22;65428;53.194;6.132;2024-01-25T14:08:12;9.70;99.90
76567;DHT22;65428;53.194;6.132;2024-01-25T14:10:38;9.90;99.90
76567;DHT22;65428;53.194;6.132;2024-01-25T14:13:04;9.50;99.90
76567;DHT22;65428;53.194;6.132;2024-01-25T14:15:29;9.40;99.90
76567;DHT22;65428;53.194;6.132;2024-01-25T14:17:55;9.30;99.90
76567;DHT22;65428;53.194;6.132;2024-01-25T14:20:21;9.20;99.90
76567;DHT22;65428;53.194;6.132;2024-01-25T14:22:48;9.10;99.90
76567;DHT22;65428;53.194;6.132;2024-01-25T14:25:14;9.00;99.90
76567;DHT22;65428;53.194;6.132;2024-01-25T14:27:39;9.00;99.90
76567;DHT22;65428;53.194;6.132;2024-01-25T14:30:06;9.00;99.90
76567;DHT22;65428;53.194;6.132;2024-01-25T14:32:32;8.90;99.90
76567;DHT22;65428;53.194;6.132;2024-01-25T14:34:58;8.90;99.90
76567;DHT22;65428;53.194;6.132;2024-01-25T14:37:24;8.70;99.90
76567;DHT22;65428;53.194;6.132;2024-01-25T14:39:49;9.00;99.90
76567;DHT22;65428;53.194;6.132;2024-01-25T14:42:15;8.80;99.90
76567;DHT22;65428;53.194;6.132;2024-01-25T14:44:44;8.80;99.90
76567;DHT22;65428;53.194;6.132;2024-01-25T14:47:09;9.00;99.90
76567;DHT22;65428;53.194;6.132;2024-01-25T14:49:35;8.90;99.90
76567;DHT22;65428;53.194;6.132;2024-01-25T14:52:01;8.80;99.90
76567;DHT22;65428;53.194;6.132;2024-01-25T14:54:26;9.00;99.90
76567;DHT22;65428;53.194;6.132;2024-01-25T14:56:52;8.70;99.90
76567;DHT22;65428;53.194;6.132;2024-01-25T14:59:18;8.70;99.90
76567;DHT22;65428;53.194;6.132;2024-01-25T15:01:47;8.70;99.90
76567;DHT22;65428;53.194;6.132;2024-01-25T15:04:13;8.80;99.90
76567;DHT22;65428;53.194;6.132;2024-01-25T15:06:41;9.00;99.90
76567;DHT22;65428;53.194;6.132;2024-01-25T15:09:07;8.70;99.90
76567;DHT22;65428;53.194;6.132;2024-01-25T15:11:33;8.60;99.90
76567;DHT22;65428;53.194;6.132;2024-01-25T15:13:58;8.60;99.90
76567;DHT22;65428;53.194;6.132;2024-01-25T15:16:25;9.00;99.90
76567;DHT22;65428;53.194;6.132;2024-01-25T15:18:50;8.60;99.90
76567;DHT22;65428;53.194;6.132;2024-01-25T15:21:16;8.60;99.90
76567;DHT22;65428;53.194;6.132;2024-01-25T15:23:42;9.00;99.90
76567;DHT22;65428;53.194;6.132;2024-01-25T15:26:07;8.60;99.90
76567;DHT22;65428;53.194;6.132;2024-01-25T15:28:33;8.60;99.90
76567;DHT22;65428;53.194;6.132;2024-01-25T15:31:01;8.70;99.90
76567;DHT22;65428;53.194;6.132;2024-01-25T15:33:26;8.60;99.90
76567;DHT22;65428;53.194;6.132;2024-01-25T15:35:52;8.90;99.90
76567;DHT22;65428;53.194;6.132;2024-01-25T15:38:18;8.60;99.90
76567;DHT22;65428;53.194;6.132;2024-01-25T15:40:45;8.60;99.90
76567;DHT22;65428;53.194;6.132;2024-01-25T15:43:10;8.50;99.90